KEMP/EMP METAR and TAF weather

Enter ICAO airport designator
Station Type Date Time Source
KEMP METAR 2019/12/13 21:53 UTC NOAA

KEMP 132153Z AUTO 22010KT 10SM CLR 14/01 A2975 RMK AO2 SLP079 T01440006


Station Type Date Time Source
KEMP Decoded METAR 2019/12/13 21:53 UTC NOAA

EMPORIA MUNICIPAL AIRPORT, KS, United States (KEMP) 38-20N 96-12W 367M
Dec 13, 2019 - 04:53 PM EST / 2019.12.13 2153 UTC
Wind: from the SW (220 degrees) at 12 MPH (10 KT):0
Visibility: 10 mile(s):0
Sky conditions: clear
Temperature: 57.9 F (14.4 C)
Dew Point: 33.1 F (0.6 C)
Relative Humidity: 38%
Pressure (altimeter): 29.75 in. Hg (1007 hPa)
ob: KEMP 132153Z AUTO 22010KT 10SM CLR 14/01 A2975 RMK AO2 SLP079 T01440006
cycle: 22

Station Type Date Time Source
KEMP TAF UTC NOAA

Error!

Example: see airport list